createdAt,value
2022-11-12T00:00:19.655Z,10.10
2022-11-12T00:01:10.379Z,10.07
2022-11-12T00:02:01.195Z,8.70
2022-11-12T00:02:51.756Z,11.00
2022-11-12T00:03:42.289Z,9.93
2022-11-12T00:04:32.970Z,9.53
2022-11-12T00:05:23.963Z,9.83
2022-11-12T00:06:14.173Z,8.73
2022-11-12T00:07:04.914Z,10.07
2022-11-12T00:07:55.567Z,11.20
2022-11-12T00:08:46.339Z,10.83
2022-11-12T00:09:37.014Z,11.63
2022-11-12T00:10:27.754Z,9.97
2022-11-12T00:11:18.213Z,9.97
2022-11-12T00:12:08.888Z,12.93
2022-11-12T00:12:59.977Z,11.27
2022-11-12T00:13:50.701Z,10.53
2022-11-12T00:14:41.517Z,11.03
2022-11-12T00:15:32.104Z,8.50
2022-11-12T00:16:22.774Z,9.70
2022-11-12T00:17:13.392Z,9.30
2022-11-12T00:18:04.102Z,10.33
2022-11-12T00:18:54.747Z,10.30
2022-11-12T00:19:45.564Z,9.90
2022-11-12T00:20:36.159Z,9.10
2022-11-12T00:21:26.805Z,10.20
2022-11-12T00:22:17.612Z,10.23
2022-11-12T00:23:08.204Z,9.50
2022-11-12T00:23:58.936Z,9.17
2022-11-12T00:24:49.608Z,9.60
2022-11-12T00:25:40.428Z,10.30
2022-11-12T00:26:31.004Z,9.03
2022-11-12T00:27:21.661Z,10.17
2022-11-12T00:28:12.384Z,9.70
2022-11-12T00:29:03.131Z,9.90
2022-11-12T00:29:53.939Z,10.83
2022-11-12T00:30:44.582Z,9.30
2022-11-12T00:31:35.246Z,10.60
2022-11-12T00:32:26.101Z,10.17
2022-11-12T00:33:16.506Z,11.90
2022-11-12T00:34:08.037Z,10.40
2022-11-12T00:35:02.468Z,9.33
2022-11-12T00:35:53.430Z,10.27
2022-11-12T00:36:44.116Z,8.93
2022-11-12T00:37:34.668Z,10.37
2022-11-12T00:38:25.765Z,10.57
2022-11-12T00:39:16.689Z,9.30
2022-11-12T00:40:07.793Z,11.73
2022-11-12T00:41:01.673Z,9.97
2022-11-12T00:41:52.382Z,12.03
2022-11-12T00:42:42.886Z,11.80
2022-11-12T00:43:33.545Z,13.03
2022-11-12T00:44:24.535Z,11.23
2022-11-12T00:45:15.354Z,10.67
2022-11-12T00:46:06.103Z,10.33
2022-11-12T00:46:57.049Z,10.60
2022-11-12T00:47:48.043Z,10.70
2022-11-12T00:48:38.462Z,9.10
2022-11-12T00:49:29.098Z,12.10
2022-11-12T00:50:19.910Z,9.37
2022-11-12T00:51:10.378Z,11.17
2022-11-12T00:52:01.080Z,11.13
2022-11-12T00:52:52.593Z,11.27
2022-11-12T00:53:42.863Z,12.17
2022-11-12T00:54:33.525Z,11.27
2022-11-12T00:55:24.604Z,11.67
2022-11-12T00:56:15.150Z,11.13
2022-11-12T00:57:05.683Z,11.17
2022-11-12T00:57:57.998Z,10.10
2022-11-12T00:58:48.560Z,11.97
2022-11-12T00:59:39.053Z,12.07
2022-11-12T01:00:29.721Z,10.77
2022-11-12T01:01:21.052Z,10.93
2022-11-12T01:02:11.569Z,11.30
2022-11-12T01:03:02.066Z,10.23
2022-11-12T01:03:53.362Z,12.27
2022-11-12T01:04:43.884Z,10.00
2022-11-12T01:05:34.822Z,11.03
2022-11-12T01:06:25.571Z,10.43
2022-11-12T01:07:16.321Z,11.60
2022-11-12T01:08:07.179Z,11.50
2022-11-12T01:08:58.047Z,12.80
2022-11-12T01:09:48.833Z,11.50
2022-11-12T01:10:39.046Z,10.30
2022-11-12T01:11:30.022Z,12.77
2022-11-12T01:12:20.718Z,13.43
2022-11-12T01:13:11.337Z,11.90
2022-11-12T01:14:03.788Z,14.10
2022-11-12T01:14:54.253Z,11.87
2022-11-12T01:15:44.560Z,12.50
2022-11-12T01:16:36.649Z,10.93
2022-11-12T01:17:27.438Z,11.77
2022-11-12T01:18:17.997Z,13.20
2022-11-12T01:19:10.132Z,11.57
2022-11-12T01:20:00.764Z,11.23
2022-11-12T01:20:51.390Z,11.23
2022-11-12T01:21:42.920Z,13.20
2022-11-12T01:22:33.507Z,14.67
2022-11-12T01:23:24.007Z,11.83
2022-11-12T01:24:14.869Z,12.53
2022-11-12T01:25:05.826Z,11.17
2022-11-12T01:25:56.230Z,12.03
2022-11-12T01:26:47.624Z,11.40
2022-11-12T01:27:38.046Z,11.23
2022-11-12T01:28:29.193Z,12.10
2022-11-12T01:29:19.611Z,12.87
2022-11-12T01:30:10.475Z,12.23
2022-11-12T01:31:14.643Z,12.37
2022-11-12T01:32:05.186Z,12.60
2022-11-12T01:32:56.260Z,14.00
2022-11-12T01:33:47.747Z,11.77
2022-11-12T01:34:38.196Z,13.10
2022-11-12T01:35:29.638Z,13.87
2022-11-12T01:36:20.632Z,11.43
2022-11-12T01:37:11.089Z,11.40
2022-11-12T01:38:01.738Z,12.37
2022-11-12T01:38:52.903Z,12.23
2022-11-12T01:39:43.349Z,13.43
2022-11-12T01:40:33.918Z,12.67
2022-11-12T01:41:26.043Z,12.60
2022-11-12T01:42:16.749Z,12.10
2022-11-12T01:43:13.742Z,13.53
2022-11-12T01:44:12.224Z,12.47
2022-11-12T01:45:02.886Z,12.23
2022-11-12T01:45:53.901Z,14.03
2022-11-12T01:47:06.613Z,13.43
2022-11-12T01:47:57.374Z,14.80
2022-11-12T01:48:55.737Z,12.80
2022-11-12T01:49:54.137Z,11.13
2022-11-12T01:50:46.024Z,12.00
2022-11-12T01:51:39.851Z,13.63
2022-11-12T01:52:36.442Z,12.73
2022-11-12T01:53:28.150Z,12.13
2022-11-12T01:54:20.095Z,11.50
2022-11-12T01:55:13.066Z,14.53
2022-11-12T01:56:05.557Z,14.40
2022-11-12T01:56:57.218Z,13.50
2022-11-12T01:57:49.554Z,13.33
2022-11-12T01:58:40.793Z,12.20
2022-11-12T01:59:36.825Z,13.10
2022-11-12T02:00:27.367Z,14.90
2022-11-12T02:01:18.112Z,15.20
2022-11-12T02:02:08.904Z,13.57
2022-11-12T02:03:00.683Z,13.27
2022-11-12T02:03:51.185Z,15.17
2022-11-12T02:04:42.660Z,14.53
2022-11-12T02:05:33.128Z,13.47
2022-11-12T02:06:24.651Z,13.60
2022-11-12T02:07:15.320Z,14.73
2022-11-12T02:08:07.341Z,13.13
2022-11-12T02:08:57.679Z,13.07
2022-11-12T02:09:48.305Z,12.83
2022-11-12T02:10:39.293Z,15.63
2022-11-12T02:11:29.656Z,14.50
2022-11-12T02:12:39.136Z,14.13
2022-11-12T02:13:48.216Z,13.30
2022-11-12T02:14:38.806Z,13.23
2022-11-12T02:15:29.537Z,12.67
2022-11-12T02:16:20.406Z,14.27
2022-11-12T02:17:10.826Z,14.50
2022-11-12T02:18:01.241Z,14.60
2022-11-12T02:18:51.994Z,14.43
2022-11-12T02:19:42.447Z,15.27
2022-11-12T02:20:34.593Z,12.33
2022-11-12T02:21:25.285Z,13.00
2022-11-12T02:22:15.683Z,15.47
2022-11-12T02:23:07.114Z,12.67
2022-11-12T02:24:05.136Z,14.23
2022-11-12T02:24:55.870Z,16.20
2022-11-12T02:25:46.535Z,14.63
2022-11-12T02:26:39.075Z,13.97
2022-11-12T02:27:29.626Z,13.83
2022-11-12T02:28:20.339Z,14.40
2022-11-12T02:29:10.797Z,13.73
2022-11-12T02:30:01.397Z,13.63
2022-11-12T02:30:52.112Z,15.27
2022-11-12T02:31:42.877Z,14.50
2022-11-12T02:32:33.576Z,16.30
2022-11-12T02:33:24.392Z,16.43
2022-11-12T02:34:14.852Z,13.33
2022-11-12T02:35:05.787Z,15.33
2022-11-12T02:35:56.213Z,14.20
2022-11-12T02:36:46.779Z,15.00
2022-11-12T02:37:37.301Z,14.23
2022-11-12T02:38:28.269Z,15.23
2022-11-12T02:39:19.118Z,14.93
2022-11-12T02:40:10.038Z,14.23
2022-11-12T02:41:00.316Z,14.50
2022-11-12T02:41:51.098Z,13.13
2022-11-12T02:42:41.717Z,14.17
2022-11-12T02:43:32.312Z,14.50
2022-11-12T02:44:22.905Z,15.57
2022-11-12T02:45:13.772Z,14.93
2022-11-12T02:46:04.256Z,15.07
2022-11-12T02:46:54.875Z,15.87
2022-11-12T02:47:45.458Z,14.23
2022-11-12T02:48:36.067Z,15.93
2022-11-12T02:49:26.892Z,15.63
2022-11-12T02:50:17.733Z,14.03
2022-11-12T02:51:08.497Z,17.30
2022-11-12T02:51:59.239Z,16.23
2022-11-12T02:52:49.810Z,15.77
2022-11-12T02:53:40.382Z,14.30
2022-11-12T02:54:31.072Z,15.00
2022-11-12T02:55:21.872Z,14.43
2022-11-12T02:56:12.564Z,15.30
2022-11-12T02:57:03.311Z,14.97
2022-11-12T02:57:57.276Z,14.30
2022-11-12T02:58:47.916Z,17.00
2022-11-12T02:59:38.581Z,15.73
2022-11-12T03:00:29.256Z,14.53
2022-11-12T03:01:19.870Z,18.30
2022-11-12T03:02:10.496Z,14.83
2022-11-12T03:03:01.472Z,15.40
2022-11-12T03:03:51.937Z,16.57
2022-11-12T03:04:46.686Z,15.80
2022-11-12T03:05:39.500Z,16.30
2022-11-12T03:06:30.075Z,17.87
2022-11-12T03:07:20.635Z,15.73
2022-11-12T03:08:11.375Z,15.70
2022-11-12T03:09:02.149Z,14.87
2022-11-12T03:09:52.643Z,15.90
2022-11-12T03:10:43.336Z,17.63
2022-11-12T03:11:34.149Z,14.57
2022-11-12T03:12:24.853Z,15.47
2022-11-12T03:13:15.663Z,15.20
2022-11-12T03:14:06.125Z,16.67
2022-11-12T03:14:56.824Z,16.70
2022-11-12T03:15:47.726Z,15.13
2022-11-12T03:16:37.957Z,17.73
2022-11-12T03:17:28.584Z,17.27
2022-11-12T03:18:19.274Z,18.93
2022-11-12T03:19:09.999Z,16.33
2022-11-12T03:20:00.662Z,18.50
2022-11-12T03:20:51.853Z,15.23
2022-11-12T03:21:42.586Z,16.50
2022-11-12T03:22:33.242Z,18.13
2022-11-12T03:23:23.907Z,17.60
2022-11-12T03:24:14.558Z,14.47
2022-11-12T03:25:05.709Z,16.33
2022-11-12T03:25:56.536Z,18.07
2022-11-12T03:26:46.815Z,16.53
2022-11-12T03:27:37.419Z,15.63
2022-11-12T03:28:28.704Z,16.30
2022-11-12T03:29:19.553Z,16.20
2022-11-12T03:30:10.332Z,16.03
2022-11-12T03:31:01.476Z,16.57
2022-11-12T03:31:52.191Z,16.93
2022-11-12T03:32:42.899Z,16.63
2022-11-12T03:33:33.553Z,15.40
2022-11-12T03:34:24.272Z,16.57
2022-11-12T03:35:15.066Z,15.63
2022-11-12T03:36:06.163Z,17.47
2022-11-12T03:36:56.572Z,17.47
2022-11-12T03:37:47.225Z,15.87
2022-11-12T03:38:37.814Z,17.40
2022-11-12T03:39:28.659Z,15.70
2022-11-12T03:40:19.302Z,16.17
2022-11-12T03:41:09.691Z,15.20
2022-11-12T03:42:00.154Z,16.00
2022-11-12T03:42:51.191Z,16.73
2022-11-12T03:43:41.518Z,17.93
2022-11-12T03:44:32.036Z,15.17
2022-11-12T03:45:23.571Z,17.30
2022-11-12T03:46:14.102Z,17.17
2022-11-12T03:47:04.668Z,16.53
2022-11-12T03:47:56.072Z,18.33
2022-11-12T03:48:46.413Z,17.40
2022-11-12T03:49:36.901Z,14.53
2022-11-12T03:50:28.628Z,17.43
2022-11-12T03:51:21.186Z,18.17
2022-11-12T03:52:11.630Z,17.57
2022-11-12T03:53:02.342Z,16.77
2022-11-12T03:53:52.945Z,16.17
2022-11-12T03:54:43.641Z,17.30
2022-11-12T03:55:34.555Z,16.30
2022-11-12T03:56:25.170Z,16.47
2022-11-12T03:57:16.083Z,14.07
2022-11-12T03:58:06.813Z,16.53
2022-11-12T03:58:57.508Z,14.83
2022-11-12T03:59:48.138Z,17.40
2022-11-12T04:00:38.795Z,16.57
2022-11-12T04:01:29.520Z,17.50
2022-11-12T04:02:20.213Z,16.27
2022-11-12T04:03:11.088Z,17.43
2022-11-12T04:04:01.672Z,17.37
2022-11-12T04:05:12.233Z,18.07
2022-11-12T04:06:21.581Z,16.60
2022-11-12T04:07:30.562Z,15.93
2022-11-12T04:08:37.954Z,15.87
2022-11-12T04:09:28.763Z,15.93
2022-11-12T04:10:19.310Z,13.90
2022-11-12T04:11:12.873Z,15.53
2022-11-12T04:12:23.654Z,14.63
2022-11-12T04:13:29.787Z,14.57
2022-11-12T04:14:20.336Z,15.77
2022-11-12T04:15:10.981Z,16.37
2022-11-12T04:16:24.147Z,14.87
2022-11-12T04:17:33.194Z,16.97
2022-11-12T04:18:42.489Z,15.33
2022-11-12T04:19:51.560Z,15.73
2022-11-12T04:21:00.432Z,15.10
2022-11-12T04:21:55.371Z,14.87
2022-11-12T04:22:45.645Z,16.97
2022-11-12T04:23:36.137Z,14.07
2022-11-12T04:24:45.340Z,14.10
2022-11-12T04:25:54.375Z,13.90
2022-11-12T04:26:45.024Z,15.87
2022-11-12T04:27:35.898Z,15.03
2022-11-12T04:28:26.487Z,13.43
2022-11-12T04:29:37.604Z,16.03
2022-11-12T04:30:28.845Z,14.20
2022-11-12T04:31:19.320Z,12.63
2022-11-12T04:32:09.989Z,14.80
2022-11-12T04:33:01.295Z,13.50
2022-11-12T04:33:51.706Z,13.37
2022-11-12T04:34:42.516Z,13.97
2022-11-12T04:35:32.876Z,13.63
2022-11-12T04:36:23.561Z,14.33
2022-11-12T04:37:14.360Z,15.20
2022-11-12T04:38:05.065Z,15.87
2022-11-12T04:38:55.746Z,13.70
2022-11-12T04:39:53.086Z,14.07
2022-11-12T04:41:02.034Z,13.90
2022-11-12T04:42:10.781Z,13.30
2022-11-12T04:43:20.465Z,12.97
2022-11-12T04:44:29.824Z,13.83
2022-11-12T04:45:20.409Z,11.43
2022-11-12T04:46:11.281Z,14.13
2022-11-12T04:47:01.692Z,13.77
2022-11-12T04:47:52.458Z,14.37
2022-11-12T04:48:43.036Z,13.73
2022-11-12T04:49:33.752Z,15.07
2022-11-12T04:50:24.077Z,11.53
2022-11-12T04:51:33.480Z,12.63
2022-11-12T04:52:24.541Z,13.47
2022-11-12T04:53:15.287Z,12.63
2022-11-12T04:54:05.687Z,13.53
2022-11-12T04:54:56.473Z,12.53
2022-11-12T04:55:50.979Z,12.93
2022-11-12T04:56:41.608Z,11.50
2022-11-12T04:57:32.307Z,12.20
2022-11-12T04:58:23.575Z,14.53
2022-11-12T04:59:14.294Z,11.57
2022-11-12T05:00:05.740Z,13.47
2022-11-12T05:00:56.496Z,13.30
2022-11-12T05:01:47.229Z,11.07
2022-11-12T05:02:37.691Z,11.67
2022-11-12T05:03:28.378Z,10.77
2022-11-12T05:04:19.147Z,11.30
2022-11-12T05:05:09.908Z,12.43
2022-11-12T05:06:01.662Z,9.87
2022-11-12T05:06:52.255Z,13.57
2022-11-12T05:07:42.896Z,11.40
2022-11-12T05:08:33.534Z,10.57
2022-11-12T05:09:27.990Z,12.70
2022-11-12T05:10:18.467Z,11.43
2022-11-12T05:11:12.783Z,11.93
2022-11-12T05:12:03.782Z,11.83
2022-11-12T05:12:54.212Z,10.87
2022-11-12T05:13:44.825Z,12.90
2022-11-12T05:14:35.561Z,10.90
2022-11-12T05:15:26.108Z,11.43
2022-11-12T05:16:16.425Z,10.13
2022-11-12T05:17:07.133Z,14.57
2022-11-12T05:17:57.946Z,10.27
2022-11-12T05:18:48.603Z,12.10
2022-11-12T05:19:39.263Z,11.73
2022-11-12T05:20:29.998Z,9.83
2022-11-12T05:21:43.351Z,11.17
2022-11-12T05:22:44.338Z,10.90
2022-11-12T05:23:38.608Z,11.13
2022-11-12T05:24:41.679Z,12.00
2022-11-12T05:25:32.739Z,12.20
2022-11-12T05:26:23.453Z,12.23
2022-11-12T05:27:16.207Z,10.00
2022-11-12T05:28:07.340Z,11.47
2022-11-12T05:28:57.817Z,11.60
2022-11-12T05:29:48.746Z,9.13
2022-11-12T05:30:39.473Z,10.93
2022-11-12T05:31:30.069Z,10.77
2022-11-12T05:32:20.909Z,9.53
2022-11-12T05:33:11.376Z,9.33
2022-11-12T05:34:01.975Z,11.50
2022-11-12T05:34:52.633Z,10.60
2022-11-12T05:35:43.222Z,10.03
2022-11-12T05:36:34.261Z,12.53
2022-11-12T05:37:24.862Z,12.57
2022-11-12T05:38:15.302Z,10.90
2022-11-12T05:39:05.801Z,13.53
2022-11-12T05:39:56.588Z,11.93
2022-11-12T05:40:47.159Z,11.47
2022-11-12T05:42:05.917Z,10.37
2022-11-12T05:42:48.122Z,9.13
2022-11-12T05:43:38.884Z,10.73
2022-11-12T05:44:29.475Z,9.93
2022-11-12T05:45:20.006Z,9.80
2022-11-12T05:46:10.663Z,8.77
2022-11-12T05:47:01.471Z,8.63
2022-11-12T05:47:52.211Z,10.33
2022-11-12T05:48:42.817Z,10.20
2022-11-12T05:49:33.608Z,10.20
2022-11-12T05:50:24.164Z,9.90
2022-11-12T05:51:14.875Z,9.57
2022-11-12T05:52:05.539Z,9.40
2022-11-12T05:52:56.156Z,9.77
2022-11-12T05:53:46.895Z,9.30
2022-11-12T05:54:37.564Z,9.63
2022-11-12T05:55:30.949Z,9.27
2022-11-12T05:56:23.943Z,9.93
2022-11-12T05:57:14.618Z,9.93
2022-11-12T05:58:05.937Z,9.30
2022-11-12T05:58:56.680Z,10.93
2022-11-12T05:59:47.054Z,9.07
2022-11-12T06:00:40.937Z,8.00
2022-11-12T06:01:31.630Z,8.77
2022-11-12T06:02:22.050Z,8.40
2022-11-12T06:03:12.643Z,9.23
2022-11-12T06:04:03.343Z,10.43
2022-11-12T06:04:53.897Z,8.93
2022-11-12T06:05:44.572Z,10.23
2022-11-12T06:06:35.221Z,9.90
2022-11-12T06:07:25.742Z,9.60
2022-11-12T06:08:16.489Z,9.33
2022-11-12T06:09:07.315Z,10.90
2022-11-12T06:09:57.695Z,8.57
2022-11-12T06:10:52.465Z,9.70
2022-11-12T06:11:43.104Z,8.53
2022-11-12T06:12:33.838Z,9.23
2022-11-12T06:13:24.962Z,8.97
2022-11-12T06:14:15.574Z,9.87
2022-11-12T06:15:06.439Z,11.20
2022-11-12T06:15:57.118Z,9.50
2022-11-12T06:16:47.557Z,9.97
2022-11-12T06:17:38.099Z,9.53
2022-11-12T06:18:29.167Z,9.30
2022-11-12T06:19:20.093Z,8.80
2022-11-12T06:20:11.237Z,7.97
2022-11-12T06:21:20.334Z,7.80
2022-11-12T06:22:10.834Z,9.40
2022-11-12T06:23:01.793Z,8.20
2022-11-12T06:23:53.229Z,8.27
2022-11-12T06:24:43.561Z,8.47
2022-11-12T06:25:34.692Z,8.43
2022-11-12T06:26:26.737Z,8.87
2022-11-12T06:27:16.988Z,8.20
2022-11-12T06:28:07.803Z,8.27
2022-11-12T06:28:58.358Z,9.07
2022-11-12T06:29:48.984Z,8.13
2022-11-12T06:30:39.534Z,8.67
2022-11-12T06:31:30.162Z,6.93
2022-11-12T06:32:20.620Z,8.83
2022-11-12T06:33:11.426Z,8.97
2022-11-12T06:34:03.149Z,8.27
2022-11-12T06:34:53.831Z,8.70
2022-11-12T06:35:44.214Z,8.97
2022-11-12T06:36:35.143Z,8.93
2022-11-12T06:37:25.818Z,9.10
2022-11-12T06:38:16.499Z,9.03
2022-11-12T06:39:07.195Z,8.53
2022-11-12T06:39:57.888Z,8.87
2022-11-12T06:40:48.489Z,8.00
2022-11-12T06:41:39.317Z,7.80
2022-11-12T06:42:30.003Z,7.30
2022-11-12T06:43:20.620Z,9.70
2022-11-12T06:44:11.326Z,8.03
2022-11-12T06:45:01.770Z,8.33
2022-11-12T06:45:52.576Z,8.67
2022-11-12T06:46:43.560Z,8.47
2022-11-12T06:47:34.033Z,9.00
2022-11-12T06:48:24.617Z,8.27
2022-11-12T06:49:15.644Z,8.73
2022-11-12T06:50:06.403Z,7.93
2022-11-12T06:50:57.984Z,8.43
2022-11-12T06:51:50.340Z,7.57
2022-11-12T06:52:40.951Z,8.70
2022-11-12T06:53:31.652Z,8.47
2022-11-12T06:54:22.227Z,8.77
2022-11-12T06:55:12.916Z,10.93
2022-11-12T06:56:05.199Z,8.80
2022-11-12T06:56:55.508Z,8.63
2022-11-12T06:57:51.019Z,7.17
2022-11-12T06:58:41.915Z,8.37
2022-11-12T06:59:32.354Z,7.83
2022-11-12T07:00:23.321Z,7.43
2022-11-12T07:01:15.031Z,7.67
2022-11-12T07:02:06.456Z,7.83
2022-11-12T07:02:56.924Z,10.10
2022-11-12T07:03:50.754Z,8.63
2022-11-12T07:04:41.066Z,7.87
2022-11-12T07:05:31.743Z,8.37
2022-11-12T07:06:22.357Z,7.57
2022-11-12T07:07:13.129Z,8.70
2022-11-12T07:08:04.731Z,6.50
2022-11-12T07:08:55.368Z,7.13
2022-11-12T07:09:45.972Z,8.33
2022-11-12T07:10:36.760Z,6.97
2022-11-12T07:11:27.596Z,8.00
2022-11-12T07:12:17.959Z,7.83
2022-11-12T07:13:08.682Z,8.53
2022-11-12T07:13:59.553Z,6.67
2022-11-12T07:14:50.337Z,7.73
2022-11-12T07:15:40.753Z,7.63
2022-11-12T07:16:31.433Z,8.23
2022-11-12T07:17:22.087Z,7.13
2022-11-12T07:18:12.651Z,6.70
2022-11-12T07:19:03.605Z,6.90
2022-11-12T07:19:57.152Z,6.77
2022-11-12T07:20:50.030Z,7.43
2022-11-12T07:21:40.659Z,10.27
2022-11-12T07:22:32.617Z,7.77
2022-11-12T07:23:22.977Z,8.10
2022-11-12T07:24:13.600Z,8.77
2022-11-12T07:25:04.456Z,7.97
2022-11-12T07:26:02.437Z,6.80
2022-11-12T07:26:52.901Z,8.17
2022-11-12T07:27:43.519Z,8.33
2022-11-12T07:28:34.283Z,8.33
2022-11-12T07:29:46.322Z,7.47
2022-11-12T07:30:35.529Z,8.20
2022-11-12T07:31:26.250Z,7.53
2022-11-12T07:32:17.093Z,8.93
2022-11-12T07:33:07.439Z,7.67
2022-11-12T07:33:58.133Z,7.70
2022-11-12T07:34:50.196Z,9.83
2022-11-12T07:35:40.905Z,7.93
2022-11-12T07:36:31.465Z,8.73
2022-11-12T07:37:22.173Z,8.53
2022-11-12T07:38:12.966Z,8.17
2022-11-12T07:39:03.728Z,8.63
2022-11-12T07:39:54.359Z,7.80
2022-11-12T07:40:44.986Z,7.47
2022-11-12T07:41:35.732Z,7.83
2022-11-12T07:42:26.038Z,9.47
2022-11-12T07:43:16.624Z,7.37
2022-11-12T07:44:07.132Z,7.80
2022-11-12T07:44:57.778Z,9.83
2022-11-12T07:45:48.447Z,10.07
2022-11-12T07:46:40.129Z,10.73
2022-11-12T07:47:30.847Z,9.80
2022-11-12T07:48:21.615Z,10.53
2022-11-12T07:49:12.286Z,10.40
2022-11-12T07:50:02.985Z,8.77
2022-11-12T07:50:58.992Z,13.03
2022-11-12T07:51:49.261Z,9.20
2022-11-12T07:52:40.020Z,11.10
2022-11-12T07:53:30.634Z,8.57
2022-11-12T07:54:21.140Z,9.33
2022-11-12T07:55:11.746Z,9.30
2022-11-12T07:56:04.561Z,10.30
2022-11-12T07:56:55.296Z,11.50
2022-11-12T07:57:45.999Z,9.10
2022-11-12T07:58:36.622Z,8.20
2022-11-12T07:59:27.237Z,11.57
2022-11-12T08:00:18.400Z,9.53
2022-11-12T08:01:10.133Z,10.40
2022-11-12T08:02:00.815Z,8.77
2022-11-12T08:02:51.339Z,10.70
2022-11-12T08:03:42.078Z,8.73
2022-11-12T08:04:32.652Z,12.47
2022-11-12T08:05:22.965Z,9.77
2022-11-12T08:06:13.587Z,8.30
2022-11-12T08:07:04.898Z,10.57
2022-11-12T08:07:56.641Z,9.47
2022-11-12T08:08:47.334Z,10.67
2022-11-12T08:09:37.914Z,9.73
2022-11-12T08:10:28.597Z,8.30
2022-11-12T08:11:19.405Z,8.33
2022-11-12T08:12:09.976Z,11.33
2022-11-12T08:13:00.606Z,8.87
2022-11-12T08:13:51.587Z,12.33
2022-11-12T08:14:41.948Z,8.27
2022-11-12T08:15:32.609Z,9.40
2022-11-12T08:16:23.405Z,7.77
2022-11-12T08:17:14.147Z,8.63
2022-11-12T08:18:05.009Z,9.93
2022-11-12T08:18:55.340Z,9.37
2022-11-12T08:19:46.039Z,8.33
2022-11-12T08:20:36.542Z,9.77
2022-11-12T08:21:27.543Z,11.87
2022-11-12T08:22:17.956Z,8.27
2022-11-12T08:23:08.761Z,7.60
2022-11-12T08:23:59.204Z,8.77
2022-11-12T08:24:49.899Z,9.97
2022-11-12T08:25:40.559Z,10.63
2022-11-12T08:26:31.277Z,8.87
2022-11-12T08:27:21.947Z,9.17
2022-11-12T08:28:12.648Z,6.93
2022-11-12T08:29:08.038Z,8.13
2022-11-12T08:29:59.489Z,7.23
2022-11-12T08:30:50.189Z,8.10
2022-11-12T08:31:40.783Z,8.70
2022-11-12T08:32:31.581Z,8.90
2022-11-12T08:33:22.217Z,7.90
2022-11-12T08:34:14.387Z,9.90
2022-11-12T08:35:07.791Z,8.57
2022-11-12T08:35:58.989Z,8.93
2022-11-12T08:36:49.327Z,9.80
2022-11-12T08:37:39.979Z,9.60
2022-11-12T08:38:30.662Z,11.40
2022-11-12T08:39:21.418Z,7.80
2022-11-12T08:40:12.405Z,9.60
2022-11-12T08:41:03.756Z,7.37
2022-11-12T08:41:54.342Z,8.07
2022-11-12T08:42:44.959Z,8.67
2022-11-12T08:43:36.092Z,8.73
2022-11-12T08:44:26.715Z,8.87
2022-11-12T08:45:17.288Z,9.63
2022-11-12T08:46:08.515Z,8.00
2022-11-12T08:46:59.393Z,8.93
2022-11-12T08:47:50.056Z,8.87
2022-11-12T08:48:40.635Z,9.73
2022-11-12T08:49:31.335Z,7.30
2022-11-12T08:50:21.974Z,7.67
2022-11-12T08:51:12.592Z,10.37
2022-11-12T08:52:03.849Z,8.07
2022-11-12T08:52:59.019Z,8.37
2022-11-12T08:53:49.418Z,7.80
2022-11-12T08:54:40.008Z,8.07
2022-11-12T08:55:31.049Z,7.53
2022-11-12T08:56:21.789Z,8.70
2022-11-12T08:57:12.489Z,9.33
2022-11-12T08:58:03.858Z,8.47
2022-11-12T08:58:54.301Z,8.40
2022-11-12T08:59:44.624Z,8.43
2022-11-12T09:00:37.675Z,11.27
2022-11-12T09:01:28.130Z,8.17
2022-11-12T09:02:18.970Z,9.17
2022-11-12T09:03:14.311Z,9.60
2022-11-12T09:04:05.085Z,9.73
2022-11-12T09:04:55.412Z,8.33
2022-11-12T09:05:46.090Z,7.93
2022-11-12T09:06:36.868Z,8.80
2022-11-12T09:07:48.751Z,8.40
2022-11-12T09:08:38.148Z,8.47
2022-11-12T09:09:28.738Z,6.97
2022-11-12T09:10:19.203Z,10.57
2022-11-12T09:11:09.891Z,8.40
2022-11-12T09:12:04.272Z,10.10
2022-11-12T09:12:59.282Z,10.70
2022-11-12T09:13:52.527Z,9.60
2022-11-12T09:14:43.199Z,7.17
2022-11-12T09:15:38.310Z,8.63
2022-11-12T09:16:29.177Z,11.33
2022-11-12T09:17:19.751Z,12.07
2022-11-12T09:18:12.363Z,12.13
2022-11-12T09:19:03.079Z,13.60
2022-11-12T09:19:53.633Z,11.17
2022-11-12T09:20:44.787Z,22.20
2022-11-12T09:21:35.507Z,15.43
2022-11-12T09:22:26.268Z,20.27
2022-11-12T09:23:17.899Z,26.07
2022-11-12T09:24:08.576Z,25.33
2022-11-12T09:24:59.147Z,22.53
2022-11-12T09:25:49.824Z,22.37
2022-11-12T09:26:40.484Z,24.87
2022-11-12T09:27:31.062Z,21.27
2022-11-12T09:28:21.720Z,21.97
2022-11-12T09:29:12.438Z,28.30
2022-11-12T09:30:03.133Z,25.53
2022-11-12T09:30:54.650Z,24.63
2022-11-12T09:31:45.399Z,21.63
2022-11-12T09:32:36.074Z,34.80
2022-11-12T09:33:28.279Z,27.13
2022-11-12T09:34:18.796Z,31.30
2022-11-12T09:35:09.561Z,29.00
2022-11-12T09:36:01.053Z,27.47
2022-11-12T09:36:51.537Z,24.57
2022-11-12T09:37:42.398Z,22.00
2022-11-12T09:38:33.385Z,31.27
2022-11-12T09:39:23.674Z,29.87
2022-11-12T09:40:18.478Z,25.50
2022-11-12T09:41:09.111Z,35.37
2022-11-12T09:42:02.189Z,40.83
2022-11-12T09:42:55.585Z,27.83
2022-11-12T09:43:45.961Z,22.93
2022-11-12T09:44:37.842Z,33.83
2022-11-12T09:45:30.136Z,32.27
2022-11-12T09:46:39.284Z,25.80
2022-11-12T09:47:32.654Z,29.43
2022-11-12T09:48:25.898Z,32.07
2022-11-12T09:49:30.601Z,28.30
2022-11-12T09:50:29.044Z,35.30
2022-11-12T09:51:23.952Z,29.60
2022-11-12T09:52:17.244Z,39.77
2022-11-12T09:53:12.273Z,28.73
2022-11-12T09:54:06.090Z,31.20
2022-11-12T09:55:19.507Z,34.47
2022-11-12T09:56:12.306Z,34.50
2022-11-12T09:57:03.180Z,24.07
2022-11-12T09:57:53.889Z,24.23
2022-11-12T09:58:44.656Z,32.47
2022-11-12T09:59:38.151Z,25.17
2022-11-12T10:00:28.979Z,19.73
2022-11-12T10:01:22.150Z,22.00
2022-11-12T10:02:31.589Z,24.40
2022-11-12T10:03:33.994Z,33.57
2022-11-12T10:04:33.239Z,26.53
2022-11-12T10:05:39.175Z,28.13
2022-11-12T10:06:43.737Z,23.33
2022-11-12T10:07:34.058Z,27.43
2022-11-12T10:08:30.830Z,31.57
2022-11-12T10:09:24.096Z,27.93
2022-11-12T10:10:14.939Z,29.07
2022-11-12T10:11:10.985Z,24.30
2022-11-12T10:12:19.933Z,27.83
2022-11-12T10:13:19.525Z,20.40
2022-11-12T10:14:28.707Z,19.87
2022-11-12T10:15:43.736Z,30.20
2022-11-12T10:16:43.043Z,25.97
2022-11-12T10:17:39.730Z,25.63
2022-11-12T10:18:30.182Z,26.33
2022-11-12T10:19:43.533Z,26.17
2022-11-12T10:20:48.578Z,21.67
2022-11-12T10:21:57.717Z,25.27
2022-11-12T10:22:51.008Z,26.47
2022-11-12T10:23:42.621Z,19.27
2022-11-12T10:24:36.872Z,20.53
2022-11-12T10:25:28.133Z,24.03
2022-11-12T10:26:20.569Z,18.13
2022-11-12T10:27:26.237Z,21.43
2022-11-12T10:28:38.418Z,25.80
2022-11-12T10:29:33.500Z,22.00
2022-11-12T10:30:25.026Z,18.37
2022-11-12T10:31:17.352Z,21.93
2022-11-12T10:32:13.173Z,20.50
2022-11-12T10:33:03.652Z,19.03
2022-11-12T10:34:09.636Z,17.40
2022-11-12T10:35:00.262Z,19.40
2022-11-12T10:35:51.416Z,27.97
2022-11-12T10:36:47.912Z,25.80
2022-11-12T10:37:56.998Z,26.50
2022-11-12T10:38:48.465Z,20.03
2022-11-12T10:39:44.008Z,21.17
2022-11-12T10:40:37.311Z,27.33
2022-11-12T10:41:30.926Z,25.13
2022-11-12T10:42:22.413Z,23.60
2022-11-12T10:43:15.603Z,24.57
2022-11-12T10:44:06.624Z,19.77
2022-11-12T10:45:15.481Z,21.73
2022-11-12T10:46:17.505Z,18.43
2022-11-12T10:47:30.823Z,22.50
2022-11-12T10:48:27.057Z,23.13
2022-11-12T10:49:22.726Z,24.57
2022-11-12T10:50:21.564Z,21.87
2022-11-12T10:51:20.528Z,22.53
2022-11-12T10:52:21.502Z,23.13
2022-11-12T10:53:12.496Z,21.43
2022-11-12T10:54:32.075Z,17.50
2022-11-12T10:55:22.442Z,18.73
2022-11-12T10:56:30.037Z,19.33
2022-11-12T10:57:20.765Z,26.53
2022-11-12T10:58:11.614Z,21.03
2022-11-12T10:59:19.005Z,20.20
2022-11-12T11:00:16.657Z,21.97
2022-11-12T11:01:14.826Z,18.40
2022-11-12T11:02:15.361Z,26.87
2022-11-12T11:03:22.614Z,24.27
2022-11-12T11:04:34.242Z,19.30
2022-11-12T11:05:38.115Z,22.23
2022-11-12T11:06:28.580Z,19.07
2022-11-12T11:07:24.536Z,19.33
2022-11-12T11:08:14.971Z,17.93
2022-11-12T11:09:14.991Z,16.80
2022-11-12T11:10:05.575Z,19.97
2022-11-12T11:11:15.968Z,22.10
2022-11-12T11:12:21.900Z,24.33
2022-11-12T11:13:20.817Z,24.50
2022-11-12T11:14:23.108Z,27.40
2022-11-12T11:15:16.175Z,23.10
2022-11-12T11:16:07.922Z,23.90
2022-11-12T11:17:00.631Z,25.27
2022-11-12T11:17:51.264Z,20.50
2022-11-12T11:18:42.937Z,21.43
2022-11-12T11:19:41.391Z,19.00
2022-11-12T11:20:36.006Z,18.10
2022-11-12T11:21:26.341Z,17.37
2022-11-12T11:22:35.080Z,16.60
2022-11-12T11:23:28.704Z,15.53
2022-11-12T11:24:19.162Z,25.63
2022-11-12T11:25:12.468Z,17.53